createdAt,value
2018-09-30T08:22:41.018Z,100547.54
2018-09-30T08:25:09.273Z,100545.08
2018-09-30T08:27:37.605Z,100551.16
2018-09-30T08:30:06.165Z,100557.11
2018-09-30T08:32:34.474Z,100547.25
2018-09-30T08:35:02.746Z,100546.00
2018-09-30T08:37:36.472Z,100562.16
2018-09-30T08:40:04.815Z,100546.91
2018-09-30T08:42:33.090Z,100564.61
2018-09-30T08:45:01.250Z,100591.15
2018-09-30T08:47:29.455Z,100593.14
2018-09-30T08:49:57.658Z,100597.43
2018-09-30T08:52:26.038Z,100584.30
2018-09-30T08:54:54.278Z,100588.57
2018-09-30T08:57:22.510Z,100587.09
2018-09-30T08:59:50.869Z,100597.30
2018-09-30T09:02:19.051Z,100595.67
2018-09-30T09:04:47.310Z,100590.17
2018-09-30T09:07:15.590Z,100576.19
2018-09-30T09:09:44.379Z,100560.59
2018-09-30T09:12:12.690Z,100575.13
2018-09-30T09:14:41.031Z,100575.67
2018-09-30T09:17:09.218Z,100568.38
2018-09-30T09:19:37.490Z,100566.73
2018-09-30T09:22:05.830Z,100570.46
2018-09-30T09:24:36.730Z,100568.03
2018-09-30T09:27:06.274Z,100568.00
2018-09-30T09:29:34.593Z,100564.43
2018-09-30T09:32:02.766Z,100563.41
2018-09-30T09:34:30.966Z,100558.35
2018-09-30T09:36:59.267Z,100553.54
2018-09-30T09:39:27.526Z,100546.63
2018-09-30T09:41:55.686Z,100543.55
2018-09-30T09:44:23.970Z,100538.52
2018-09-30T09:46:52.056Z,100540.23
2018-09-30T09:49:20.314Z,100546.91
2018-09-30T09:51:48.405Z,100544.95
2018-09-30T09:54:16.666Z,100549.41
2018-09-30T09:56:44.726Z,100537.73
2018-09-30T09:59:13.203Z,100548.92
2018-09-30T10:01:41.445Z,100533.93
2018-09-30T10:04:09.754Z,100536.20
2018-09-30T10:06:38.074Z,100530.28
2018-09-30T10:09:06.586Z,100523.66
2018-09-30T10:11:34.774Z,100516.16
2018-09-30T10:14:03.183Z,100513.11
2018-09-30T10:16:31.325Z,100509.65
2018-09-30T10:18:59.553Z,100513.62
2018-09-30T10:21:27.826Z,100513.69
2018-09-30T10:23:56.047Z,100503.95
2018-09-30T10:26:24.305Z,100500.81
2018-09-30T10:28:52.486Z,100497.45
2018-09-30T10:31:20.725Z,100487.73
2018-09-30T10:33:48.925Z,100477.58
2018-09-30T10:36:17.265Z,100473.05
2018-09-30T10:38:45.510Z,100481.20
2018-09-30T10:41:13.726Z,100483.46
2018-09-30T10:43:41.794Z,100471.22
2018-09-30T10:46:10.053Z,100464.37
2018-09-30T10:48:38.194Z,100468.79
2018-09-30T10:51:06.454Z,100469.80
2018-09-30T10:53:34.686Z,100445.43
2018-09-30T10:56:03.045Z,100445.89
2018-09-30T10:58:31.185Z,100430.22
2018-09-30T11:00:59.380Z,100406.05
2018-09-30T11:03:27.591Z,100386.43
2018-09-30T11:05:55.775Z,100377.87
2018-09-30T11:08:23.944Z,100360.09
2018-09-30T11:10:52.223Z,100364.34
2018-09-30T11:13:20.394Z,100356.52
2018-09-30T11:15:48.655Z,100344.45
2018-09-30T11:18:16.754Z,100349.89
2018-09-30T11:20:44.956Z,100367.16
2018-09-30T11:23:13.168Z,100371.83
2018-09-30T11:25:41.275Z,100371.03
2018-09-30T11:28:09.475Z,100366.33
2018-09-30T11:30:37.595Z,100377.66
2018-09-30T11:33:05.807Z,100372.90
2018-09-30T11:35:34.143Z,100375.59
2018-09-30T11:38:02.416Z,100380.44
2018-09-30T11:40:30.595Z,100376.94
2018-09-30T11:46:30.837Z,100377.23
2018-09-30T12:15:22.528Z,100307.20
2018-09-30T20:31:30.541Z,100175.00
2018-09-30T20:33:58.559Z,100170.28
2018-09-30T20:36:27.180Z,100168.50
2018-09-30T20:38:55.368Z,100171.36
2018-09-30T20:41:23.919Z,100173.64
2018-09-30T20:43:52.508Z,100171.61
2018-09-30T20:46:20.776Z,100173.41
2018-09-30T20:48:49.011Z,100168.50
2018-09-30T20:51:17.057Z,100161.95
2018-09-30T20:53:45.143Z,100163.75
2018-09-30T20:56:13.194Z,100163.16
2018-09-30T20:58:41.267Z,100152.56
2018-09-30T21:01:09.214Z,100153.98
2018-09-30T21:03:37.676Z,100150.88
2018-09-30T21:06:12.577Z,100141.92
2018-09-30T21:08:40.724Z,100151.96
2018-09-30T21:11:08.916Z,100149.20
2018-09-30T21:13:37.578Z,100150.86
2018-09-30T21:16:05.904Z,100150.86
2018-09-30T21:18:34.119Z,100147.79
2018-09-30T21:21:02.304Z,100144.78
2018-09-30T21:23:30.517Z,100145.50
2018-09-30T21:25:58.677Z,100136.08
2018-09-30T21:28:26.906Z,100129.75
2018-09-30T21:30:55.437Z,100127.84
2018-09-30T21:33:24.322Z,100126.76
2018-09-30T21:35:52.722Z,100126.17
2018-09-30T21:38:20.906Z,100123.42
2018-09-30T21:40:49.169Z,100132.50
2018-09-30T21:43:18.389Z,100131.06
2018-09-30T21:45:46.637Z,100130.84
2018-09-30T21:48:16.209Z,100125.95
2018-09-30T21:50:44.509Z,100115.94
2018-09-30T21:53:13.671Z,100127.39
2018-09-30T21:55:41.877Z,100122.98
2018-09-30T21:58:10.218Z,100123.47
2018-09-30T22:00:40.418Z,100120.36
2018-09-30T22:03:10.378Z,100114.05
2018-09-30T22:05:38.709Z,100117.64
2018-09-30T22:08:08.537Z,100109.14
2018-09-30T22:10:37.499Z,100105.20
2018-09-30T22:13:06.138Z,100107.82
2018-09-30T22:15:34.489Z,100105.64
2018-09-30T22:18:02.998Z,100102.61
2018-09-30T22:20:31.338Z,100103.20
2018-09-30T22:22:59.551Z,100102.22
2018-09-30T22:25:27.698Z,100101.23
2018-09-30T22:27:56.118Z,100107.57
2018-09-30T22:30:24.238Z,100106.11
2018-09-30T22:32:52.417Z,100099.88
2018-09-30T22:35:20.601Z,100091.73
2018-09-30T22:37:48.857Z,100082.98
2018-09-30T22:40:17.095Z,100086.77
2018-09-30T22:42:45.397Z,100085.67
2018-09-30T22:45:13.578Z,100083.39
2018-09-30T22:47:41.678Z,100087.36
2018-09-30T22:50:09.998Z,100089.48
2018-09-30T22:52:38.158Z,100090.23
2018-09-30T22:55:06.438Z,100096.16
2018-09-30T22:57:34.760Z,100101.29
2018-09-30T23:00:03.269Z,100098.06
2018-09-30T23:02:31.580Z,100098.09
2018-09-30T23:04:59.830Z,100100.87
2018-09-30T23:07:27.882Z,100095.79
2018-09-30T23:09:56.335Z,100091.73
2018-09-30T23:12:24.621Z,100091.63
2018-09-30T23:14:52.935Z,100092.33
2018-09-30T23:17:21.189Z,100091.51
2018-09-30T23:19:49.427Z,100091.73
2018-09-30T23:22:17.588Z,100090.31
2018-09-30T23:24:45.807Z,100087.09
2018-09-30T23:27:13.947Z,100087.91
2018-09-30T23:29:42.207Z,100094.45
2018-09-30T23:32:10.387Z,100094.81
2018-09-30T23:34:38.707Z,100096.44
2018-09-30T23:37:06.927Z,100085.34
2018-09-30T23:39:35.189Z,100088.72
2018-09-30T23:42:03.367Z,100087.14
2018-09-30T23:44:31.575Z,100082.37
2018-09-30T23:46:59.895Z,100090.03
2018-09-30T23:49:28.097Z,100074.30
2018-09-30T23:51:56.236Z,100075.77
2018-09-30T23:54:24.807Z,100076.45
2018-09-30T23:56:52.947Z,100085.34
2018-09-30T23:59:21.147Z,100079.04
